Polar Ranger — WDC8652 — position and weather

sailwx.info

Track history (hours):
 
Tides and Currents Weather Stations Pressure Air Temp Water Temp Dewpoint Dewpoint Depression Visibility Wind Speed Wind Dir Waves Ship Positions

Polar Ranger

Owner: Dunlap Towing Co., LaConner, WA. More information available from US FCC via Universal Licensing System and Coast Guard Vessel Documentation Center.

Last reported at 2016-May-18 23:31 UTC. Time now 2016-May-25 14:59 UTC.
Position N 58°16' W 136°00'.

Type: Towing. MMSI: 367090860.

Date/timePositionNaut miles runAvg speedWind from/ knotsBaromVisibWave heightAir tempDewpointWater temp
2016-May-18 23:31N 58°16' W 136°00'7 6.8
2016-May-18 22:33N 58°18' W 135°48'12 1.4
2016-May-18 13:33N 58°15' W 135°26'  
2016-May-13 14:24N 49°14' W 126°53'1415.1
2016-May-13 13:29N 49°05' W 126°36'10 7.2
2016-May-13 12:06N 48°60' W 126°24'813.9
2016-May-13 11:32N 48°55' W 126°14'5 5.0
2016-May-13 10:33N 48°58' W 126°20'7 7.3
2016-May-13 09:33N 48°54' W 126°11'7 7.2
2016-May-13 08:33N 48°50' W 126°02'7 7.1
2016-May-13 07:33N 48°46' W 125°53'7 6.9
2016-May-13 06:33N 48°43' W 125°44'7 6.6
2016-May-13 05:33N 48°42' W 125°34'7 6.8
2016-May-13 04:33N 48°41' W 125°23'7 6.6
2016-May-13 03:33N 48°40' W 125°13'49 7.0
2016-May-12 20:33N 48°21' W 124°06'9 8.4
2016-May-12 19:28N 48°18' W 123°53'8 8.3
2016-May-12 18:32N 48°17' W 123°41'7 7.6
2016-May-12 17:33N 48°15' W 123°30'8 7.6
2016-May-12 16:33N 48°14' W 123°19'7 7.3
2016-May-12 15:33N 48°13' W 123°08'7 6.8
2016-May-12 14:33N 48°12' W 122°58'6 6.5
2016-May-12 13:33N 48°12' W 122°48'14 6.8
2016-May-12 11:30N 48°00' W 122°36'8 8.1
2016-May-12 10:33N 47°55' W 122°29'8 7.8
2016-May-12 09:33N 47°47' W 122°26'8 7.9
2016-May-12 08:33N 47°39' W 122°27'4 4.2
2016-May-12 07:33N 47°36' W 122°23'1 0.8
2016-May-12 06:33N 47°35' W 122°22'0 0.0
2016-May-12 05:33N 47°35' W 122°22'0 0.0
2016-May-12 04:33N 47°35' W 122°22'0 0.0
2016-May-12 03:33N 47°35' W 122°22'0 0.1
2016-May-12 02:34N 47°35' W 122°22'1 0.6
2016-May-12 01:33N 47°35' W 122°21'0 0.0
2016-May-12 00:33N 47°35' W 122°21'0 0.0
2016-May-11 23:33N 47°35' W 122°21'0 0.0
2016-May-11 22:33N 47°35' W 122°21'1 0.6
2016-May-11 21:33N 47°36' W 122°22'1111.4
2016-May-11 20:33N 47°47' W 122°25'  
Track history (hours):
 
Tides and Currents Weather Stations Pressure Air Temp Water Temp Dewpoint Dewpoint Depression Visibility Wind Speed Wind Dir Waves Ship Positions

Polar Ranger

Owner: Dunlap Towing Co., LaConner, WA. More information available from US FCC via Universal Licensing System and Coast Guard Vessel Documentation Center.

Last reported at 2016-May-18 23:31 UTC. Time now 2016-May-25 14:59 UTC.
Position N 58°16' W 136°00'.

Type: Towing. MMSI: 367090860.

Date/timePositionNaut miles runAvg speedWind from/ knotsBaromVisibWave heightAir tempDewpointWater temp
2016-May-18 23:31N 58°16' W 136°00'7 6.8
2016-May-18 22:33N 58°18' W 135°48'12 1.4
2016-May-18 13:33N 58°15' W 135°26'  
2016-May-13 14:24N 49°14' W 126°53'1415.1
2016-May-13 13:29N 49°05' W 126°36'10 7.2
2016-May-13 12:06N 48°60' W 126°24'813.9
2016-May-13 11:32N 48°55' W 126°14'5 5.0
2016-May-13 10:33N 48°58' W 126°20'7 7.3
2016-May-13 09:33N 48°54' W 126°11'7 7.2
2016-May-13 08:33N 48°50' W 126°02'7 7.1
2016-May-13 07:33N 48°46' W 125°53'7 6.9
2016-May-13 06:33N 48°43' W 125°44'7 6.6
2016-May-13 05:33N 48°42' W 125°34'7 6.8
2016-May-13 04:33N 48°41' W 125°23'7 6.6
2016-May-13 03:33N 48°40' W 125°13'49 7.0
2016-May-12 20:33N 48°21' W 124°06'9 8.4
2016-May-12 19:28N 48°18' W 123°53'8 8.3
2016-May-12 18:32N 48°17' W 123°41'7 7.6
2016-May-12 17:33N 48°15' W 123°30'8 7.6
2016-May-12 16:33N 48°14' W 123°19'7 7.3
2016-May-12 15:33N 48°13' W 123°08'7 6.8
2016-May-12 14:33N 48°12' W 122°58'6 6.5
2016-May-12 13:33N 48°12' W 122°48'14 6.8
2016-May-12 11:30N 48°00' W 122°36'8 8.1
2016-May-12 10:33N 47°55' W 122°29'8 7.8
2016-May-12 09:33N 47°47' W 122°26'8 7.9
2016-May-12 08:33N 47°39' W 122°27'4 4.2
2016-May-12 07:33N 47°36' W 122°23'1 0.8
2016-May-12 06:33N 47°35' W 122°22'0 0.0
2016-May-12 05:33N 47°35' W 122°22'0 0.0
2016-May-12 04:33N 47°35' W 122°22'0 0.0
2016-May-12 03:33N 47°35' W 122°22'0 0.1
2016-May-12 02:34N 47°35' W 122°22'1 0.6
2016-May-12 01:33N 47°35' W 122°21'0 0.0
2016-May-12 00:33N 47°35' W 122°21'0 0.0
2016-May-11 23:33N 47°35' W 122°21'0 0.0
2016-May-11 22:33N 47°35' W 122°21'1 0.6
2016-May-11 21:33N 47°36' W 122°22'1111.4
2016-May-11 20:33N 47°47' W 122°25'  

Dump ship's entire track history